sensor_id;sensor_type;location;lat;lon;timestamp;temperature;humidity
22418;DHT22;11376;50.932;4.442;2023-05-07T00:01:02;17.20;99.90
22418;DHT22;11376;50.932;4.442;2023-05-07T00:03:27;17.30;99.90
22418;DHT22;11376;50.932;4.442;2023-05-07T00:05:54;17.20;99.90
22418;DHT22;11376;50.932;4.442;2023-05-07T00:08:19;17.20;99.90
22418;DHT22;11376;50.932;4.442;2023-05-07T00:10:46;17.20;99.90
22418;DHT22;11376;50.932;4.442;2023-05-07T00:13:12;17.40;99.90
22418;DHT22;11376;50.932;4.442;2023-05-07T00:15:37;17.50;99.90
22418;DHT22;11376;50.932;4.442;2023-05-07T00:18:03;17.60;99.90
22418;DHT22;11376;50.932;4.442;2023-05-07T00:20:29;17.40;99.90
22418;DHT22;11376;50.932;4.442;2023-05-07T00:22:55;17.50;99.90
22418;DHT22;11376;50.932;4.442;2023-05-07T00:25:20;17.50;99.90
22418;DHT22;11376;50.932;4.442;2023-05-07T00:27:46;17.60;99.90
22418;DHT22;11376;50.932;4.442;2023-05-07T00:30:12;17.70;99.90
22418;DHT22;11376;50.932;4.442;2023-05-07T00:32:38;17.70;99.90
22418;DHT22;11376;50.932;4.442;2023-05-07T00:35:04;17.70;99.90
22418;DHT22;11376;50.932;4.442;2023-05-07T00:37:30;17.80;99.90
22418;DHT22;11376;50.932;4.442;2023-05-07T00:39:56;17.80;99.90
22418;DHT22;11376;50.932;4.442;2023-05-07T00:42:22;17.80;99.90
22418;DHT22;11376;50.932;4.442;2023-05-07T00:44:47;17.70;99.90
22418;DHT22;11376;50.932;4.442;2023-05-07T00:47:13;17.70;99.90
22418;DHT22;11376;50.932;4.442;2023-05-07T00:49:42;17.70;99.90
22418;DHT22;11376;50.932;4.442;2023-05-07T00:52:11;17.70;99.90
22418;DHT22;11376;50.932;4.442;2023-05-07T00:54:37;17.60;99.90
22418;DHT22;11376;50.932;4.442;2023-05-07T00:57:02;17.70;99.90
22418;DHT22;11376;50.932;4.442;2023-05-07T00:59:29;17.60;99.90
22418;DHT22;11376;50.932;4.442;2023-05-07T01:01:55;17.70;99.90
22418;DHT22;11376;50.932;4.442;2023-05-07T01:04:21;17.70;99.90
22418;DHT22;11376;50.932;4.442;2023-05-07T01:06:46;17.70;99.90
22418;DHT22;11376;50.932;4.442;2023-05-07T01:09:12;17.70;99.90
22418;DHT22;11376;50.932;4.442;2023-05-07T01:11:38;17.80;99.90
22418;DHT22;11376;50.932;4.442;2023-05-07T01:14:04;17.70;99.90
22418;DHT22;11376;50.932;4.442;2023-05-07T01:16:30;17.60;99.90
22418;DHT22;11376;50.932;4.442;2023-05-07T01:18:56;17.60;99.90
22418;DHT22;11376;50.932;4.442;2023-05-07T01:21:24;17.50;99.90
22418;DHT22;11376;50.932;4.442;2023-05-07T01:23:52;17.50;99.90
22418;DHT22;11376;50.932;4.442;2023-05-07T01:26:17;17.40;99.90
22418;DHT22;11376;50.932;4.442;2023-05-07T01:28:45;17.40;99.90
22418;DHT22;11376;50.932;4.442;2023-05-07T01:31:10;17.20;99.90
22418;DHT22;11376;50.932;4.442;2023-05-07T01:33:37;17.20;99.90
22418;DHT22;11376;50.932;4.442;2023-05-07T01:36:03;17.20;99.90
22418;DHT22;11376;50.932;4.442;2023-05-07T01:38:31;17.20;99.90
22418;DHT22;11376;50.932;4.442;2023-05-07T01:40:57;17.10;99.90
22418;DHT22;11376;50.932;4.442;2023-05-07T01:43:23;17.00;99.90
22418;DHT22;11376;50.932;4.442;2023-05-07T01:45:48;17.00;99.90
22418;DHT22;11376;50.932;4.442;2023-05-07T01:48:15;17.00;99.90
22418;DHT22;11376;50.932;4.442;2023-05-07T01:50:41;16.90;99.90
22418;DHT22;11376;50.932;4.442;2023-05-07T01:53:06;17.00;99.90
22418;DHT22;11376;50.932;4.442;2023-05-07T01:55:32;17.00;99.90
22418;DHT22;11376;50.932;4.442;2023-05-07T01:57:57;16.90;99.90
22418;DHT22;11376;50.932;4.442;2023-05-07T02:00:23;16.90;99.90
22418;DHT22;11376;50.932;4.442;2023-05-07T02:02:48;16.90;99.90
22418;DHT22;11376;50.932;4.442;2023-05-07T02:05:14;16.80;99.90
22418;DHT22;11376;50.932;4.442;2023-05-07T02:07:39;16.70;99.90
22418;DHT22;11376;50.932;4.442;2023-05-07T02:10:05;16.70;99.90
22418;DHT22;11376;50.932;4.442;2023-05-07T02:12:31;16.70;99.90
22418;DHT22;11376;50.932;4.442;2023-05-07T02:14:56;16.90;99.90
22418;DHT22;11376;50.932;4.442;2023-05-07T02:17:22;16.70;99.90
22418;DHT22;11376;50.932;4.442;2023-05-07T02:19:47;16.70;99.90
22418;DHT22;11376;50.932;4.442;2023-05-07T02:22:13;16.80;99.90
22418;DHT22;11376;50.932;4.442;2023-05-07T02:24:38;16.80;99.90
22418;DHT22;11376;50.932;4.442;2023-05-07T02:27:04;16.60;99.90
22418;DHT22;11376;50.932;4.442;2023-05-07T02:29:30;16.50;99.90
22418;DHT22;11376;50.932;4.442;2023-05-07T02:31:55;16.50;99.90
22418;DHT22;11376;50.932;4.442;2023-05-07T02:34:21;16.50;99.90
22418;DHT22;11376;50.932;4.442;2023-05-07T02:36:46;16.40;99.90
22418;DHT22;11376;50.932;4.442;2023-05-07T02:39:12;16.50;99.90
22418;DHT22;11376;50.932;4.442;2023-05-07T02:41:38;16.60;99.90
22418;DHT22;11376;50.932;4.442;2023-05-07T02:44:03;16.50;99.90
22418;DHT22;11376;50.932;4.442;2023-05-07T02:46:29;16.40;99.90
22418;DHT22;11376;50.932;4.442;2023-05-07T02:48:54;16.30;99.90
22418;DHT22;11376;50.932;4.442;2023-05-07T02:51:21;16.30;99.90
22418;DHT22;11376;50.932;4.442;2023-05-07T02:53:47;16.20;99.90
22418;DHT22;11376;50.932;4.442;2023-05-07T02:56:13;16.10;99.90
22418;DHT22;11376;50.932;4.442;2023-05-07T02:58:38;16.10;99.90
22418;DHT22;11376;50.932;4.442;2023-05-07T03:01:08;16.20;99.90
22418;DHT22;11376;50.932;4.442;2023-05-07T03:03:34;16.20;99.90
22418;DHT22;11376;50.932;4.442;2023-05-07T03:06:00;16.20;99.90
22418;DHT22;11376;50.932;4.442;2023-05-07T03:08:26;16.30;99.90
22418;DHT22;11376;50.932;4.442;2023-05-07T03:10:51;16.30;99.90
22418;DHT22;11376;50.932;4.442;2023-05-07T03:13:17;16.30;99.90
22418;DHT22;11376;50.932;4.442;2023-05-07T03:15:43;16.30;99.90
22418;DHT22;11376;50.932;4.442;2023-05-07T03:18:08;16.30;99.90
22418;DHT22;11376;50.932;4.442;2023-05-07T03:20:34;16.30;99.90
22418;DHT22;11376;50.932;4.442;2023-05-07T03:23:00;16.30;99.90
22418;DHT22;11376;50.932;4.442;2023-05-07T03:25:25;16.30;99.90
22418;DHT22;11376;50.932;4.442;2023-05-07T03:27:51;16.40;99.90
22418;DHT22;11376;50.932;4.442;2023-05-07T03:30:16;16.50;99.90
22418;DHT22;11376;50.932;4.442;2023-05-07T03:32:42;16.60;99.90
22418;DHT22;11376;50.932;4.442;2023-05-07T03:35:07;16.60;99.90
22418;DHT22;11376;50.932;4.442;2023-05-07T03:37:33;16.60;99.90
22418;DHT22;11376;50.932;4.442;2023-05-07T03:39:58;16.50;99.90
22418;DHT22;11376;50.932;4.442;2023-05-07T03:42:24;16.50;99.90
22418;DHT22;11376;50.932;4.442;2023-05-07T03:44:50;16.50;99.90
22418;DHT22;11376;50.932;4.442;2023-05-07T03:47:15;16.50;99.90
22418;DHT22;11376;50.932;4.442;2023-05-07T03:49:41;16.60;99.90
22418;DHT22;11376;50.932;4.442;2023-05-07T03:52:06;16.60;99.90
22418;DHT22;11376;50.932;4.442;2023-05-07T03:54:32;16.60;99.90
22418;DHT22;11376;50.932;4.442;2023-05-07T03:56:57;16.70;99.90
22418;DHT22;11376;50.932;4.442;2023-05-07T03:59:23;16.70;99.90
22418;DHT22;11376;50.932;4.442;2023-05-07T04:01:48;16.70;99.90
22418;DHT22;11376;50.932;4.442;2023-05-07T04:04:14;16.70;99.90
22418;DHT22;11376;50.932;4.442;2023-05-07T04:06:40;16.80;99.90
22418;DHT22;11376;50.932;4.442;2023-05-07T04:09:05;16.80;99.90
22418;DHT22;11376;50.932;4.442;2023-05-07T04:11:31;16.80;99.90
22418;DHT22;11376;50.932;4.442;2023-05-07T04:13:57;16.70;99.90
22418;DHT22;11376;50.932;4.442;2023-05-07T04:16:22;16.70;99.90
22418;DHT22;11376;50.932;4.442;2023-05-07T04:18:48;16.70;99.90
22418;DHT22;11376;50.932;4.442;2023-05-07T04:21:14;16.60;99.90
22418;DHT22;11376;50.932;4.442;2023-05-07T04:23:40;16.60;99.90
22418;DHT22;11376;50.932;4.442;2023-05-07T04:26:05;16.70;99.90
22418;DHT22;11376;50.932;4.442;2023-05-07T04:28:32;16.70;99.90
22418;DHT22;11376;50.932;4.442;2023-05-07T04:30:57;16.70;99.90
22418;DHT22;11376;50.932;4.442;2023-05-07T04:33:23;16.60;99.90
22418;DHT22;11376;50.932;4.442;2023-05-07T04:35:48;16.60;99.90
22418;DHT22;11376;50.932;4.442;2023-05-07T04:38:14;16.60;99.90
22418;DHT22;11376;50.932;4.442;2023-05-07T04:40:40;16.80;99.90
22418;DHT22;11376;50.932;4.442;2023-05-07T04:43:06;16.80;99.90
22418;DHT22;11376;50.932;4.442;2023-05-07T04:45:32;16.70;99.90
22418;DHT22;11376;50.932;4.442;2023-05-07T04:47:58;16.60;99.90
22418;DHT22;11376;50.932;4.442;2023-05-07T04:50:23;16.60;99.90
22418;DHT22;11376;50.932;4.442;2023-05-07T04:52:49;16.60;99.90
22418;DHT22;11376;50.932;4.442;2023-05-07T04:55:15;16.60;99.90
22418;DHT22;11376;50.932;4.442;2023-05-07T04:57:41;16.70;99.90
22418;DHT22;11376;50.932;4.442;2023-05-07T05:00:06;16.70;99.90
22418;DHT22;11376;50.932;4.442;2023-05-07T05:02:34;16.90;99.90
22418;DHT22;11376;50.932;4.442;2023-05-07T05:05:00;16.90;99.90
22418;DHT22;11376;50.932;4.442;2023-05-07T05:07:26;16.90;99.90
22418;DHT22;11376;50.932;4.442;2023-05-07T05:09:52;17.00;99.90
22418;DHT22;11376;50.932;4.442;2023-05-07T05:12:17;17.10;99.90
22418;DHT22;11376;50.932;4.442;2023-05-07T05:14:43;17.20;99.90
22418;DHT22;11376;50.932;4.442;2023-05-07T05:17:08;17.10;99.90
22418;DHT22;11376;50.932;4.442;2023-05-07T05:19:34;17.00;99.90
22418;DHT22;11376;50.932;4.442;2023-05-07T05:21:59;17.00;99.90
22418;DHT22;11376;50.932;4.442;2023-05-07T05:24:26;17.00;99.90
22418;DHT22;11376;50.932;4.442;2023-05-07T05:26:55;17.10;99.90
22418;DHT22;11376;50.932;4.442;2023-05-07T05:29:20;17.20;99.90
22418;DHT22;11376;50.932;4.442;2023-05-07T05:31:46;17.30;99.90
22418;DHT22;11376;50.932;4.442;2023-05-07T05:34:11;17.40;99.90
22418;DHT22;11376;50.932;4.442;2023-05-07T05:36:37;17.50;99.90
22418;DHT22;11376;50.932;4.442;2023-05-07T05:39:02;17.60;99.90
22418;DHT22;11376;50.932;4.442;2023-05-07T05:41:28;17.60;99.90
22418;DHT22;11376;50.932;4.442;2023-05-07T05:43:54;17.70;99.90
22418;DHT22;11376;50.932;4.442;2023-05-07T05:46:19;17.70;99.90
22418;DHT22;11376;50.932;4.442;2023-05-07T05:48:45;17.70;99.90
22418;DHT22;11376;50.932;4.442;2023-05-07T05:51:10;17.80;99.90
22418;DHT22;11376;50.932;4.442;2023-05-07T05:53:43;17.80;99.90
22418;DHT22;11376;50.932;4.442;2023-05-07T05:56:08;17.80;99.90
22418;DHT22;11376;50.932;4.442;2023-05-07T05:58:34;17.90;99.90
22418;DHT22;11376;50.932;4.442;2023-05-07T06:00:59;18.00;99.90
22418;DHT22;11376;50.932;4.442;2023-05-07T06:03:25;18.00;99.90
22418;DHT22;11376;50.932;4.442;2023-05-07T06:05:51;18.10;99.90
22418;DHT22;11376;50.932;4.442;2023-05-07T06:08:16;18.10;99.90
22418;DHT22;11376;50.932;4.442;2023-05-07T06:10:42;18.10;99.90
22418;DHT22;11376;50.932;4.442;2023-05-07T06:13:08;18.10;99.90
22418;DHT22;11376;50.932;4.442;2023-05-07T06:15:33;17.90;99.90
22418;DHT22;11376;50.932;4.442;2023-05-07T06:17:59;17.40;99.90
22418;DHT22;11376;50.932;4.442;2023-05-07T06:20:24;16.80;99.90
22418;DHT22;11376;50.932;4.442;2023-05-07T06:22:50;16.60;99.90
22418;DHT22;11376;50.932;4.442;2023-05-07T06:25:15;16.50;99.90
22418;DHT22;11376;50.932;4.442;2023-05-07T06:27:41;16.50;99.90
22418;DHT22;11376;50.932;4.442;2023-05-07T06:30:06;16.60;99.90
22418;DHT22;11376;50.932;4.442;2023-05-07T06:32:32;16.70;99.90
22418;DHT22;11376;50.932;4.442;2023-05-07T06:34:57;16.70;99.90
22418;DHT22;11376;50.932;4.442;2023-05-07T06:37:23;16.80;99.90
22418;DHT22;11376;50.932;4.442;2023-05-07T06:39:49;16.80;99.90
22418;DHT22;11376;50.932;4.442;2023-05-07T06:42:14;16.80;99.90
22418;DHT22;11376;50.932;4.442;2023-05-07T06:44:40;17.00;99.90
22418;DHT22;11376;50.932;4.442;2023-05-07T06:47:05;17.10;99.90
22418;DHT22;11376;50.932;4.442;2023-05-07T06:49:31;17.20;99.90
22418;DHT22;11376;50.932;4.442;2023-05-07T06:51:57;17.00;99.90
22418;DHT22;11376;50.932;4.442;2023-05-07T06:54:23;16.90;99.90
22418;DHT22;11376;50.932;4.442;2023-05-07T06:56:48;16.70;99.90
22418;DHT22;11376;50.932;4.442;2023-05-07T06:59:14;16.60;99.90
22418;DHT22;11376;50.932;4.442;2023-05-07T07:01:40;16.50;99.90
22418;DHT22;11376;50.932;4.442;2023-05-07T07:04:05;16.60;99.90
22418;DHT22;11376;50.932;4.442;2023-05-07T07:06:31;16.60;99.90
22418;DHT22;11376;50.932;4.442;2023-05-07T07:08:57;16.70;99.90
22418;DHT22;11376;50.932;4.442;2023-05-07T07:11:23;16.80;99.90
22418;DHT22;11376;50.932;4.442;2023-05-07T07:13:48;17.00;99.90
22418;DHT22;11376;50.932;4.442;2023-05-07T07:16:14;17.10;99.90
22418;DHT22;11376;50.932;4.442;2023-05-07T07:18:39;17.30;99.90
22418;DHT22;11376;50.932;4.442;2023-05-07T07:21:05;17.50;99.90
22418;DHT22;11376;50.932;4.442;2023-05-07T07:23:30;17.50;99.90
22418;DHT22;11376;50.932;4.442;2023-05-07T07:25:56;17.60;99.90
22418;DHT22;11376;50.932;4.442;2023-05-07T07:28:21;17.60;99.90
22418;DHT22;11376;50.932;4.442;2023-05-07T07:30:47;17.80;99.90
22418;DHT22;11376;50.932;4.442;2023-05-07T07:33:12;18.00;99.90
22418;DHT22;11376;50.932;4.442;2023-05-07T07:35:38;17.80;99.90
22418;DHT22;11376;50.932;4.442;2023-05-07T07:38:03;17.40;99.90
22418;DHT22;11376;50.932;4.442;2023-05-07T07:40:29;17.30;99.90
22418;DHT22;11376;50.932;4.442;2023-05-07T07:42:55;17.30;99.90
22418;DHT22;11376;50.932;4.442;2023-05-07T07:45:20;17.20;99.90
22418;DHT22;11376;50.932;4.442;2023-05-07T07:47:46;17.20;99.90
22418;DHT22;11376;50.932;4.442;2023-05-07T07:50:11;17.00;99.90
22418;DHT22;11376;50.932;4.442;2023-05-07T07:52:37;16.80;99.90
22418;DHT22;11376;50.932;4.442;2023-05-07T07:55:03;16.80;99.90
22418;DHT22;11376;50.932;4.442;2023-05-07T07:57:28;16.70;99.90
22418;DHT22;11376;50.932;4.442;2023-05-07T07:59:54;16.80;99.90
22418;DHT22;11376;50.932;4.442;2023-05-07T08:02:19;16.90;99.90
22418;DHT22;11376;50.932;4.442;2023-05-07T08:04:45;17.00;99.90
22418;DHT22;11376;50.932;4.442;2023-05-07T08:07:11;17.20;99.90
22418;DHT22;11376;50.932;4.442;2023-05-07T08:09:37;17.30;99.90
22418;DHT22;11376;50.932;4.442;2023-05-07T08:12:02;17.50;99.90
22418;DHT22;11376;50.932;4.442;2023-05-07T08:14:28;17.40;99.90
22418;DHT22;11376;50.932;4.442;2023-05-07T08:16:54;17.50;99.90
22418;DHT22;11376;50.932;4.442;2023-05-07T08:19:22;17.60;99.90
22418;DHT22;11376;50.932;4.442;2023-05-07T08:21:48;17.70;99.90
22418;DHT22;11376;50.932;4.442;2023-05-07T08:24:16;17.40;99.90
22418;DHT22;11376;50.932;4.442;2023-05-07T08:26:43;17.40;99.90
22418;DHT22;11376;50.932;4.442;2023-05-07T08:29:08;17.50;99.90
22418;DHT22;11376;50.932;4.442;2023-05-07T08:31:34;17.80;99.90
22418;DHT22;11376;50.932;4.442;2023-05-07T08:34:00;17.50;99.90
22418;DHT22;11376;50.932;4.442;2023-05-07T08:36:25;17.50;99.90
22418;DHT22;11376;50.932;4.442;2023-05-07T08:38:51;17.50;99.90
22418;DHT22;11376;50.932;4.442;2023-05-07T08:41:17;17.50;99.90
22418;DHT22;11376;50.932;4.442;2023-05-07T08:43:42;17.60;99.90
22418;DHT22;11376;50.932;4.442;2023-05-07T08:46:12;17.60;99.90
22418;DHT22;11376;50.932;4.442;2023-05-07T08:48:42;17.70;99.90
22418;DHT22;11376;50.932;4.442;2023-05-07T08:51:08;17.50;99.90
22418;DHT22;11376;50.932;4.442;2023-05-07T08:53:34;17.40;99.90
22418;DHT22;11376;50.932;4.442;2023-05-07T08:56:00;17.50;99.90
22418;DHT22;11376;50.932;4.442;2023-05-07T08:58:26;17.70;99.90
22418;DHT22;11376;50.932;4.442;2023-05-07T09:00:51;17.80;99.90
22418;DHT22;11376;50.932;4.442;2023-05-07T09:03:18;17.90;99.90
22418;DHT22;11376;50.932;4.442;2023-05-07T09:05:43;18.10;99.90
22418;DHT22;11376;50.932;4.442;2023-05-07T09:08:09;18.20;99.90
22418;DHT22;11376;50.932;4.442;2023-05-07T09:10:35;18.40;99.90
22418;DHT22;11376;50.932;4.442;2023-05-07T09:13:02;18.30;99.90
22418;DHT22;11376;50.932;4.442;2023-05-07T09:15:28;18.20;99.90
22418;DHT22;11376;50.932;4.442;2023-05-07T09:17:53;18.10;99.90
22418;DHT22;11376;50.932;4.442;2023-05-07T09:20:19;18.20;99.90
22418;DHT22;11376;50.932;4.442;2023-05-07T09:22:44;18.30;99.90
22418;DHT22;11376;50.932;4.442;2023-05-07T09:25:10;18.60;99.90
22418;DHT22;11376;50.932;4.442;2023-05-07T09:27:36;18.80;99.90
22418;DHT22;11376;50.932;4.442;2023-05-07T09:30:05;18.90;99.90
22418;DHT22;11376;50.932;4.442;2023-05-07T09:32:34;18.80;99.90
22418;DHT22;11376;50.932;4.442;2023-05-07T09:34:59;18.40;99.90
22418;DHT22;11376;50.932;4.442;2023-05-07T09:37:25;18.40;99.90
22418;DHT22;11376;50.932;4.442;2023-05-07T09:39:51;18.60;99.90
22418;DHT22;11376;50.932;4.442;2023-05-07T09:42:22;18.60;99.90
22418;DHT22;11376;50.932;4.442;2023-05-07T09:44:47;18.20;99.90
22418;DHT22;11376;50.932;4.442;2023-05-07T09:47:14;18.20;99.90
22418;DHT22;11376;50.932;4.442;2023-05-07T09:49:43;18.70;99.90
22418;DHT22;11376;50.932;4.442;2023-05-07T09:52:13;18.90;99.90
22418;DHT22;11376;50.932;4.442;2023-05-07T09:54:39;18.80;99.90
22418;DHT22;11376;50.932;4.442;2023-05-07T09:57:05;18.70;99.90
22418;DHT22;11376;50.932;4.442;2023-05-07T09:59:32;18.60;99.90
22418;DHT22;11376;50.932;4.442;2023-05-07T10:01:58;18.30;99.90
22418;DHT22;11376;50.932;4.442;2023-05-07T10:04:27;18.00;99.90
22418;DHT22;11376;50.932;4.442;2023-05-07T10:06:53;17.80;99.90
22418;DHT22;11376;50.932;4.442;2023-05-07T10:09:19;17.60;99.90
22418;DHT22;11376;50.932;4.442;2023-05-07T10:11:45;17.80;99.90
22418;DHT22;11376;50.932;4.442;2023-05-07T10:14:13;17.70;99.90
22418;DHT22;11376;50.932;4.442;2023-05-07T10:16:39;17.60;99.90
22418;DHT22;11376;50.932;4.442;2023-05-07T10:19:05;17.50;99.90
22418;DHT22;11376;50.932;4.442;2023-05-07T10:21:33;17.60;99.90
22418;DHT22;11376;50.932;4.442;2023-05-07T10:24:20;17.50;99.90
22418;DHT22;11376;50.932;4.442;2023-05-07T10:26:47;17.80;99.90
22418;DHT22;11376;50.932;4.442;2023-05-07T10:31:54;18.30;99.90
22418;DHT22;11376;50.932;4.442;2023-05-07T10:34:21;18.00;99.90
22418;DHT22;11376;50.932;4.442;2023-05-07T10:36:48;18.40;99.90
22418;DHT22;11376;50.932;4.442;2023-05-07T10:39:15;18.70;99.90
22418;DHT22;11376;50.932;4.442;2023-05-07T10:41:40;18.70;99.90
22418;DHT22;11376;50.932;4.442;2023-05-07T10:44:06;18.90;99.90
22418;DHT22;11376;50.932;4.442;2023-05-07T10:46:31;19.10;99.90
22418;DHT22;11376;50.932;4.442;2023-05-07T10:51:27;19.80;99.90
22418;DHT22;11376;50.932;4.442;2023-05-07T10:56:37;20.40;99.90
22418;DHT22;11376;50.932;4.442;2023-05-07T11:04:22;21.10;99.90
22418;DHT22;11376;50.932;4.442;2023-05-07T11:09:53;21.00;99.90
22418;DHT22;11376;50.932;4.442;2023-05-07T11:15:04;21.30;99.90
22418;DHT22;11376;50.932;4.442;2023-05-07T11:17:29;20.30;99.90
22418;DHT22;11376;50.932;4.442;2023-05-07T11:20:03;19.90;99.90
22418;DHT22;11376;50.932;4.442;2023-05-07T11:25:04;19.30;99.90
22418;DHT22;11376;50.932;4.442;2023-05-07T11:27:31;19.20;99.90
22418;DHT22;11376;50.932;4.442;2023-05-07T11:29:57;19.30;99.90
22418;DHT22;11376;50.932;4.442;2023-05-07T11:32:26;19.40;99.90
22418;DHT22;11376;50.932;4.442;2023-05-07T11:34:52;19.50;99.90
22418;DHT22;11376;50.932;4.442;2023-05-07T11:37:18;19.70;99.90
22418;DHT22;11376;50.932;4.442;2023-05-07T11:39:44;20.20;99.90
22418;DHT22;11376;50.932;4.442;2023-05-07T11:42:31;20.90;99.90
22418;DHT22;11376;50.932;4.442;2023-05-07T11:44:57;21.20;99.90
22418;DHT22;11376;50.932;4.442;2023-05-07T11:47:22;21.70;99.90
22418;DHT22;11376;50.932;4.442;2023-05-07T11:49:49;21.20;99.90
22418;DHT22;11376;50.932;4.442;2023-05-07T11:52:15;21.00;99.90
22418;DHT22;11376;50.932;4.442;2023-05-07T11:54:41;20.80;99.90
22418;DHT22;11376;50.932;4.442;2023-05-07T11:57:16;21.20;99.90
22418;DHT22;11376;50.932;4.442;2023-05-07T11:59:42;21.70;99.90
22418;DHT22;11376;50.932;4.442;2023-05-07T12:02:09;21.40;99.90
22418;DHT22;11376;50.932;4.442;2023-05-07T12:04:35;21.50;99.90
22418;DHT22;11376;50.932;4.442;2023-05-07T12:07:01;21.70;99.90
22418;DHT22;11376;50.932;4.442;2023-05-07T12:09:26;21.90;99.90
22418;DHT22;11376;50.932;4.442;2023-05-07T12:11:52;22.20;99.90
22418;DHT22;11376;50.932;4.442;2023-05-07T12:14:17;22.70;99.90
22418;DHT22;11376;50.932;4.442;2023-05-07T12:16:43;22.50;99.90
22418;DHT22;11376;50.932;4.442;2023-05-07T12:19:10;21.80;99.90
22418;DHT22;11376;50.932;4.442;2023-05-07T12:21:38;21.80;99.90
22418;DHT22;11376;50.932;4.442;2023-05-07T12:24:04;22.30;99.90
22418;DHT22;11376;50.932;4.442;2023-05-07T12:26:30;22.10;99.90
22418;DHT22;11376;50.932;4.442;2023-05-07T12:28:56;21.40;99.90
22418;DHT22;11376;50.932;4.442;2023-05-07T12:31:22;21.20;99.90
22418;DHT22;11376;50.932;4.442;2023-05-07T12:33:47;21.70;99.90
22418;DHT22;11376;50.932;4.442;2023-05-07T12:36:13;22.00;99.90
22418;DHT22;11376;50.932;4.442;2023-05-07T12:38:39;22.30;99.90
22418;DHT22;11376;50.932;4.442;2023-05-07T12:41:06;22.50;99.90
22418;DHT22;11376;50.932;4.442;2023-05-07T12:43:32;22.70;99.90
22418;DHT22;11376;50.932;4.442;2023-05-07T12:45:59;22.20;99.90
22418;DHT22;11376;50.932;4.442;2023-05-07T12:48:25;22.10;99.90
22418;DHT22;11376;50.932;4.442;2023-05-07T12:50:59;22.10;99.90
22418;DHT22;11376;50.932;4.442;2023-05-07T12:53:26;21.80;99.90
22418;DHT22;11376;50.932;4.442;2023-05-07T12:55:52;20.80;99.90
22418;DHT22;11376;50.932;4.442;2023-05-07T12:58:28;20.30;99.90
22418;DHT22;11376;50.932;4.442;2023-05-07T13:00:54;20.20;99.90
22418;DHT22;11376;50.932;4.442;2023-05-07T13:03:27;20.90;99.90
22418;DHT22;11376;50.932;4.442;2023-05-07T13:05:54;21.00;99.90
22418;DHT22;11376;50.932;4.442;2023-05-07T13:09:02;21.50;99.90
22418;DHT22;11376;50.932;4.442;2023-05-07T13:11:08;21.60;99.90
22418;DHT22;11376;50.932;4.442;2023-05-07T13:13:36;21.20;99.90
22418;DHT22;11376;50.932;4.442;2023-05-07T13:16:02;20.40;99.90
22418;DHT22;11376;50.932;4.442;2023-05-07T13:18:29;20.30;99.90
22418;DHT22;11376;50.932;4.442;2023-05-07T13:20:55;20.40;99.90
22418;DHT22;11376;50.932;4.442;2023-05-07T13:23:20;20.30;99.90
22418;DHT22;11376;50.932;4.442;2023-05-07T13:25:46;20.00;99.90
22418;DHT22;11376;50.932;4.442;2023-05-07T13:28:11;19.80;99.90
22418;DHT22;11376;50.932;4.442;2023-05-07T13:30:37;19.90;99.90
22418;DHT22;11376;50.932;4.442;2023-05-07T13:33:03;19.90;99.90
22418;DHT22;11376;50.932;4.442;2023-05-07T13:35:28;20.00;99.90
22418;DHT22;11376;50.932;4.442;2023-05-07T13:37:54;19.80;99.90
22418;DHT22;11376;50.932;4.442;2023-05-07T13:40:20;19.80;99.90
22418;DHT22;11376;50.932;4.442;2023-05-07T13:42:46;19.70;99.90
22418;DHT22;11376;50.932;4.442;2023-05-07T13:45:11;20.00;99.90
22418;DHT22;11376;50.932;4.442;2023-05-07T13:47:41;19.90;99.90
22418;DHT22;11376;50.932;4.442;2023-05-07T13:50:08;19.80;99.90
22418;DHT22;11376;50.932;4.442;2023-05-07T13:52:33;19.80;99.90
22418;DHT22;11376;50.932;4.442;2023-05-07T13:54:59;19.80;99.90
22418;DHT22;11376;50.932;4.442;2023-05-07T13:57:24;19.80;99.90
22418;DHT22;11376;50.932;4.442;2023-05-07T13:59:50;20.10;99.90
22418;DHT22;11376;50.932;4.442;2023-05-07T14:02:15;20.20;99.90
22418;DHT22;11376;50.932;4.442;2023-05-07T14:04:41;20.10;99.90
22418;DHT22;11376;50.932;4.442;2023-05-07T14:07:06;19.90;99.90
22418;DHT22;11376;50.932;4.442;2023-05-07T14:09:32;19.70;99.90
22418;DHT22;11376;50.932;4.442;2023-05-07T14:11:58;19.60;99.90
22418;DHT22;11376;50.932;4.442;2023-05-07T14:14:23;19.70;99.90
22418;DHT22;11376;50.932;4.442;2023-05-07T14:16:49;19.70;99.90
22418;DHT22;11376;50.932;4.442;2023-05-07T14:19:15;19.60;99.90
22418;DHT22;11376;50.932;4.442;2023-05-07T14:21:40;20.20;99.90
22418;DHT22;11376;50.932;4.442;2023-05-07T14:24:06;20.60;99.90
22418;DHT22;11376;50.932;4.442;2023-05-07T14:26:33;20.70;99.90
22418;DHT22;11376;50.932;4.442;2023-05-07T14:28:58;21.10;99.90
22418;DHT22;11376;50.932;4.442;2023-05-07T14:31:24;20.90;99.90
22418;DHT22;11376;50.932;4.442;2023-05-07T14:33:50;20.90;99.90
22418;DHT22;11376;50.932;4.442;2023-05-07T14:36:19;21.40;99.90
22418;DHT22;11376;50.932;4.442;2023-05-07T14:38:49;20.80;99.90
22418;DHT22;11376;50.932;4.442;2023-05-07T14:41:15;20.70;99.90
22418;DHT22;11376;50.932;4.442;2023-05-07T14:43:41;20.50;99.90
22418;DHT22;11376;50.932;4.442;2023-05-07T14:46:06;20.30;99.90
22418;DHT22;11376;50.932;4.442;2023-05-07T14:48:32;20.60;99.90
22418;DHT22;11376;50.932;4.442;2023-05-07T14:50:57;20.70;99.90
22418;DHT22;11376;50.932;4.442;2023-05-07T14:53:23;20.40;99.90
22418;DHT22;11376;50.932;4.442;2023-05-07T14:55:48;20.40;99.90
22418;DHT22;11376;50.932;4.442;2023-05-07T14:58:14;20.20;99.90
22418;DHT22;11376;50.932;4.442;2023-05-07T15:00:40;20.00;99.90
22418;DHT22;11376;50.932;4.442;2023-05-07T15:03:06;20.20;99.90
22418;DHT22;11376;50.932;4.442;2023-05-07T15:05:33;20.50;99.90
22418;DHT22;11376;50.932;4.442;2023-05-07T15:07:58;20.90;99.90
22418;DHT22;11376;50.932;4.442;2023-05-07T15:10:24;20.70;99.90
22418;DHT22;11376;50.932;4.442;2023-05-07T15:12:49;20.90;99.90
22418;DHT22;11376;50.932;4.442;2023-05-07T15:15:15;20.90;99.90
22418;DHT22;11376;50.932;4.442;2023-05-07T15:17:41;20.90;99.90
22418;DHT22;11376;50.932;4.442;2023-05-07T15:20:06;20.60;99.90
22418;DHT22;11376;50.932;4.442;2023-05-07T15:22:32;20.60;99.90
22418;DHT22;11376;50.932;4.442;2023-05-07T15:24:57;20.80;99.90
22418;DHT22;11376;50.932;4.442;2023-05-07T15:27:24;20.80;99.90
22418;DHT22;11376;50.932;4.442;2023-05-07T15:29:49;20.60;99.90
22418;DHT22;11376;50.932;4.442;2023-05-07T15:32:15;20.70;99.90
22418;DHT22;11376;50.932;4.442;2023-05-07T15:34:40;20.80;99.90
22418;DHT22;11376;50.932;4.442;2023-05-07T15:37:06;20.50;99.90
22418;DHT22;11376;50.932;4.442;2023-05-07T15:39:32;20.20;99.90
22418;DHT22;11376;50.932;4.442;2023-05-07T15:41:57;20.40;99.90
22418;DHT22;11376;50.932;4.442;2023-05-07T15:44:23;20.40;99.90